Time;durP1;ratioP1;P1;durP2;ratioP2;P2;SDS_P1;SDS_P2;PMS_P1;PMS_P2;Temp;Humidity;BMP_temperature;BMP_pressure;BME280_temperature;BME280_humidity;BME280_pressure;Samples;Min_cycle;Max_cycle;Signal;HPM_P1;HPM_P2
2023/05/24 00:02:14;;;;;;;;;3.00;3.00;;;;;-147.17;100.00;-4255.34;5065290;27;51208;-54
2023/05/24 00:04:40;;;;;;;;;4.00;3.00;;;;;-147.17;100.00;-4752.25;5065927;27;51162;-53
2023/05/24 00:07:06;;;;;;;;;6.00;5.00;;;;;-147.17;100.00;-5497.50;5066531;28;51216;-54
2023/05/24 00:09:31;;;;;;;;;5.00;4.00;;;;;-147.17;100.00;-5745.88;5064562;27;51864;-55
2023/05/24 00:11:57;;;;;;;;;3.00;3.00;;;;;-147.17;100.00;-5994.25;5063216;27;51204;-55
2023/05/24 00:14:23;;;;;;;;;3.00;3.00;;;;;-147.17;100.00;-6242.59;5061166;27;51425;-56
2023/05/24 00:16:49;;;;;;;;;5.00;4.25;;;;;-147.17;100.00;-6490.94;5064994;27;51215;-55
2023/05/24 00:19:17;;;;;;;;;5.67;4.33;;;;;-147.17;100.00;-6739.25;5066156;27;51775;-56
2023/05/24 00:21:45;;;;;;;;;4.33;3.00;;;;;-147.17;100.00;-7235.84;5061921;27;51289;-56
2023/05/24 00:24:11;;;;;;;;;5.33;3.33;;;;;-147.17;100.00;-7484.09;5062577;27;51199;-56
2023/05/24 00:26:36;;;;;;;;;5.00;5.00;;;;;-147.17;100.00;-7980.59;5063058;27;51094;-55
2023/05/24 00:29:02;;;;;;;;;7.00;5.33;;;;;-147.17;100.00;-8228.81;5062734;27;51659;-55
2023/05/24 00:31:27;;;;;;;;;5.33;3.67;;;;;-147.17;100.00;-8477.03;5063760;27;51587;-56
2023/05/24 00:33:53;;;;;;;;;4.67;4.00;;;;;-147.17;100.00;-8477.03;5066396;28;51198;-54
2023/05/24 00:36:18;;;;;;;;;4.00;4.00;;;;;-147.17;100.00;-8973.38;5044202;28;53398;-56
2023/05/24 00:38:43;;;;;;;;;6.33;5.00;;;;;-147.17;100.00;-9221.53;5047348;28;52150;-58
2023/05/24 00:41:10;;;;;;;;;4.33;4.00;;;;;-147.17;100.00;-9469.69;5064754;27;51230;-56
2023/05/24 00:43:36;;;;;;;;;4.67;4.00;;;;;-147.17;100.00;-9965.91;5061104;27;51400;-59
2023/05/24 00:46:06;;;;;;;;;5.33;5.00;;;;;-147.17;100.00;-10214.00;5065644;27;51397;-55
2023/05/24 00:48:32;;;;;;;;;5.33;4.00;;;;;-147.17;100.00;-10462.09;5065408;28;51329;-54
2023/05/24 00:50:57;;;;;;;;;5.00;5.00;;;;;-147.17;100.00;-10958.19;5063592;27;51222;-55
2023/05/24 00:53:23;;;;;;;;;4.00;3.67;;;;;-147.17;100.00;-11206.22;5065489;27;51218;-55
2023/05/24 00:55:48;;;;;;;;;4.00;4.00;;;;;-147.17;100.00;-11702.25;5067163;28;51707;-54
2023/05/24 00:58:14;;;;;;;;;4.33;3.00;;;;;-147.17;100.00;-12198.19;5063713;27;51230;-55
2023/05/24 01:00:45;;;;;;;;;5.00;4.00;;;;;-147.17;100.00;-12694.06;5062288;27;53487;-54
2023/05/24 01:03:11;;;;;;;;;4.33;3.67;;;;;-147.17;100.00;-13189.88;5064879;27;51300;-54
2023/05/24 01:05:36;;;;;;;;;4.67;4.67;;;;;-147.17;100.00;-13189.88;5065127;28;51141;-55
2023/05/24 01:08:14;;;;;;;;;5.33;5.00;;;;;-147.17;100.00;-13933.50;5062243;27;52039;-55
2023/05/24 01:11:05;;;;;;;;;4.00;3.25;;;;;-147.17;100.00;-14181.31;5064574;27;51205;-55
2023/05/24 01:13:46;;;;;;;;;3.50;3.50;;;;;-147.17;100.00;-14429.16;5063395;27;51206;-55
2023/05/24 01:16:20;;;;;;;;;5.00;5.00;;;;;-147.17;100.00;-14429.16;5065241;27;51333;-54
2023/05/24 01:19:04;;;;;;;;;4.00;2.75;;;;;-147.17;100.00;-14676.94;5065040;28;52698;-53
2023/05/24 01:21:47;;;;;;;;;5.00;5.00;;;;;-147.17;100.00;-14924.75;5065079;27;51206;-55
2023/05/24 01:24:31;;;;;;;;;5.50;5.25;;;;;-147.17;100.00;-15172.50;5062574;27;51353;-55
2023/05/24 01:27:08;;;;;;;;;5.75;4.00;;;;;-147.17;100.00;-15420.25;5065586;27;53724;-55
2023/05/24 01:29:34;;;;;;;;;5.50;4.50;;;;;-147.17;100.00;-15420.25;5060953;27;51180;-56
2023/05/24 01:32:01;;;;;;;;;4.00;4.00;;;;;-147.17;100.00;-15420.25;5062562;27;51156;-55
2023/05/24 01:34:26;;;;;;;;;3.75;3.75;;;;;-147.17;100.00;-15668.00;5060112;27;51207;-54
2023/05/24 01:36:52;;;;;;;;;5.25;4.50;;;;;-147.17;100.00;-15668.00;5063438;27;51250;-55
2023/05/24 01:39:20;;;;;;;;;4.00;4.00;;;;;-147.17;100.00;-15668.00;5060870;27;53554;-53
2023/05/24 01:42:04;;;;;;;;;4.25;4.25;;;;;-147.17;100.00;-15668.00;5066151;28;53112;-54
2023/05/24 01:44:43;;;;;;;;;6.00;5.00;;;;;-147.17;100.00;-15668.00;5065708;27;51155;-54
2023/05/24 01:47:26;;;;;;;;;3.25;3.25;;;;;-147.17;100.00;-15915.72;5063459;27;51510;-52
2023/05/24 01:50:01;;;;;;;;;3.75;3.00;;;;;-147.17;100.00;-15915.72;5064506;28;52100;-53
2023/05/24 01:52:30;;;;;;;;;5.00;4.00;;;;;-147.17;100.00;-15917.19;5064655;28;51196;-54
2023/05/24 01:54:57;;;;;;;;;5.00;4.00;;;;;-147.17;100.00;-15917.19;5066798;28;51303;-53
2023/05/24 01:57:23;;;;;;;;;5.00;4.00;;;;;-147.17;100.00;-15917.19;5063757;28;53529;-53
2023/05/24 01:59:50;;;;;;;;;5.00;5.00;;;;;-147.17;100.00;-15917.19;5064114;27;52722;-53
2023/05/24 02:02:16;;;;;;;;;5.00;5.00;;;;;-147.17;100.00;-15917.19;5063783;27;51250;-54
2023/05/24 02:04:41;;;;;;;;;5.33;4.33;;;;;-147.17;100.00;-15917.19;5065633;28;51485;-53
2023/05/24 02:07:06;;;;;;;;;7.00;5.00;;;;;-147.17;100.00;-15917.19;5063716;28;51612;-55
2023/05/24 02:09:32;;;;;;;;;4.50;4.25;;;;;-147.17;100.00;-15917.19;5064972;28;51964;-54
2023/05/24 02:11:57;;;;;;;;;5.00;5.00;;;;;-147.17;100.00;-15917.19;5064710;28;51595;-55
2023/05/24 02:14:23;;;;;;;;;6.50;6.00;;;;;-147.17;100.00;-15917.19;5057666;27;51956;-56
2023/05/24 02:16:49;;;;;;;;;5.33;5.33;;;;;-147.17;100.00;-15917.19;5064414;27;51533;-54
2023/05/24 02:19:16;;;;;;;;;5.00;4.00;;;;;-147.17;100.00;-15917.19;5061658;27;53620;-56
2023/05/24 02:21:41;;;;;;;;;4.00;4.00;;;;;-147.17;100.00;-15917.19;5062036;27;51236;-56
2023/05/24 02:24:10;;;;;;;;;5.00;4.67;;;;;-147.17;100.00;-15917.19;5059230;27;51092;-55
2023/05/24 02:26:36;;;;;;;;;6.00;5.00;;;;;-147.17;100.00;-15917.19;5062648;27;52166;-54
2023/05/24 02:29:01;;;;;;;;;6.00;5.50;;;;;-147.17;100.00;-15917.19;5063232;28;51198;-54
2023/05/24 02:31:28;;;;;;;;;4.33;4.33;;;;;-147.17;100.00;-15917.19;5061514;27;51262;-55
2023/05/24 02:33:54;;;;;;;;;6.00;5.00;;;;;-147.17;100.00;-15917.19;5058562;27;51274;-53
2023/05/24 02:36:22;;;;;;;;;6.00;5.67;;;;;-147.17;100.00;-15917.19;5061494;27;51491;-55
2023/05/24 02:38:48;;;;;;;;;7.25;4.75;;;;;-147.17;100.00;-15917.19;5060870;28;51737;-55
2023/05/24 02:41:16;;;;;;;;;9.25;6.75;;;;;-147.17;100.00;-15917.19;5063860;28;51359;-54
2023/05/24 02:43:42;;;;;;;;;5.67;5.67;;;;;-147.17;100.00;-15917.19;5059065;27;51191;-55
2023/05/24 02:46:07;;;;;;;;;5.75;4.75;;;;;-147.17;100.00;-15917.19;5060998;27;51416;-53
2023/05/24 02:48:32;;;;;;;;;3.00;2.00;;;;;-147.17;100.00;-15917.19;5063280;28;51608;-55
2023/05/24 02:51:01;;;;;;;;;4.75;4.75;;;;;-147.17;100.00;-15917.19;5061786;28;51207;-54
2023/05/24 02:53:27;;;;;;;;;5.50;4.75;;;;;-147.17;100.00;-15917.19;5059930;27;51273;-54
2023/05/24 02:55:52;;;;;;;;;6.50;5.00;;;;;-147.17;100.00;-15917.19;5042552;28;51302;-55
2023/05/24 02:58:17;;;;;;;;;4.00;4.00;;;;;-147.17;100.00;-15917.19;5060083;27;63730;-54
2023/05/24 03:00:43;;;;;;;;;4.25;4.00;;;;;-147.17;100.00;-15917.19;5063298;28;51465;-54
2023/05/24 03:03:08;;;;;;;;;7.25;4.25;;;;;-147.17;100.00;-15917.19;5060916;27;51601;-55
2023/05/24 03:05:33;;;;;;;;;7.50;4.50;;;;;-147.17;100.00;-15917.19;5061100;27;51299;-54
2023/05/24 03:07:59;;;;;;;;;6.00;4.50;;;;;-147.17;100.00;-15917.19;5059471;28;53641;-55
2023/05/24 03:10:24;;;;;;;;;5.50;5.25;;;;;-147.17;100.00;-15917.19;5062678;27;53274;-54
2023/05/24 03:12:49;;;;;;;;;5.75;5.00;;;;;-147.17;100.00;-15917.19;5059128;27;51278;-54
2023/05/24 03:15:15;;;;;;;;;4.00;4.00;;;;;-147.17;100.00;-15917.19;5060771;27;51292;-55
2023/05/24 03:17:40;;;;;;;;;4.00;4.00;;;;;-147.17;100.00;-15917.19;5061129;27;53356;-53
2023/05/24 03:20:06;;;;;;;;;7.00;6.25;;;;;-147.17;100.00;-15917.19;5061133;27;51194;-55
2023/05/24 03:22:32;;;;;;;;;7.75;5.00;;;;;-147.17;100.00;-15917.19;5064669;28;51246;-55
2023/05/24 03:24:57;;;;;;;;;5.00;5.00;;;;;-147.17;100.00;-15917.19;5060620;27;51204;-55
2023/05/24 03:27:22;;;;;;;;;5.25;4.50;;;;;-147.17;100.00;-15917.19;5055542;27;59347;-55
2023/05/24 03:29:47;;;;;;;;;6.00;5.00;;;;;-147.17;100.00;-15917.19;5062024;28;52078;-55
2023/05/24 03:32:13;;;;;;;;;5.00;5.00;;;;;-147.17;100.00;-15917.19;5064292;28;51253;-54
2023/05/24 03:34:38;;;;;;;;;4.75;4.75;;;;;-147.17;100.00;-15917.19;5063493;28;51246;-55
2023/05/24 03:37:04;;;;;;;;;6.00;5.25;;;;;-147.17;100.00;-15917.19;5062259;28;66862;-54
2023/05/24 03:39:29;;;;;;;;;8.75;7.00;;;;;-147.17;100.00;-15917.19;5063571;28;51335;-53
2023/05/24 03:41:55;;;;;;;;;6.25;5.75;;;;;-147.17;100.00;-15917.19;5061972;27;51731;-55
2023/05/24 03:44:20;;;;;;;;;6.50;6.00;;;;;-147.17;100.00;-15917.19;5063508;27;51246;-54
2023/05/24 03:46:45;;;;;;;;;8.25;5.25;;;;;-147.17;100.00;-15917.19;5063088;28;52356;-55
2023/05/24 03:49:10;;;;;;;;;9.50;6.00;;;;;-147.17;100.00;-15917.19;5063506;28;52949;-54
2023/05/24 03:51:36;;;;;;;;;7.00;6.00;;;;;-147.17;100.00;-15917.19;5062525;28;51215;-56
2023/05/24 03:54:01;;;;;;;;;5.00;5.00;;;;;-147.17;100.00;-15917.19;5063794;28;51330;-54
2023/05/24 03:56:27;;;;;;;;;3.25;3.00;;;;;-147.17;100.00;-15917.19;5063297;27;51766;-54
2023/05/24 03:58:52;;;;;;;;;5.00;5.00;;;;;-147.17;100.00;-15917.19;5041502;28;51240;-54
2023/05/24 04:01:19;;;;;;;;;10.25;6.25;;;;;-147.17;100.00;-15917.19;5061982;28;51194;-53
2023/05/24 04:03:45;;;;;;;;;5.25;5.25;;;;;-147.17;100.00;-15917.19;5061074;28;53444;-55
2023/05/24 04:06:12;;;;;;;;;5.50;5.50;;;;;-147.17;100.00;-15917.19;5061174;28;52650;-55
2023/05/24 04:08:37;;;;;;;;;3.00;3.00;;;;;-147.17;100.00;-15917.19;5061954;28;51374;-55
2023/05/24 04:11:02;;;;;;;;;6.50;6.00;;;;;-147.17;100.00;-15917.19;5063354;28;51335;-55
2023/05/24 04:13:28;;;;;;;;;4.00;3.00;;;;;-147.17;100.00;-15917.19;5062795;27;51265;-56
2023/05/24 04:15:53;;;;;;;;;7.00;6.00;;;;;-147.17;100.00;-15917.19;5063262;28;53061;-55
2023/05/24 04:18:18;;;;;;;;;6.25;5.50;;;;;-147.17;100.00;-15917.19;5065140;28;51266;-55
2023/05/24 04:20:44;;;;;;;;;8.00;6.00;;;;;-147.17;100.00;-15917.19;5066897;27;51133;-55
2023/05/24 04:23:09;;;;;;;;;5.75;5.25;;;;;-147.17;100.00;-15917.19;5061791;27;51322;-56
2023/05/24 04:25:34;;;;;;;;;6.25;4.75;;;;;-147.17;100.00;-15917.19;5062901;28;51806;-55
2023/05/24 04:28:02;;;;;;;;;6.75;5.00;;;;;-147.17;100.00;-15917.19;5066575;28;51168;-53
2023/05/24 04:30:29;;;;;;;;;5.00;5.00;;;;;-147.17;100.00;-15917.19;5061890;27;51241;-55
2023/05/24 04:32:57;;;;;;;;;6.75;5.50;;;;;-147.17;100.00;-15917.19;5062164;27;51908;-54
2023/05/24 04:35:24;;;;;;;;;5.75;5.00;;;;;-147.17;100.00;-15917.19;5061579;27;52361;-54
2023/05/24 04:37:50;;;;;;;;;6.00;5.00;;;;;-147.17;100.00;-15917.19;5063933;27;53355;-54
2023/05/24 04:40:16;;;;;;;;;5.75;5.75;;;;;-147.17;100.00;-15917.19;5063766;28;51431;-55
2023/05/24 04:42:41;;;;;;;;;4.00;4.00;;;;;-147.17;100.00;-15917.19;5064397;27;51373;-55
2023/05/24 04:45:07;;;;;;;;;9.00;7.00;;;;;-147.17;100.00;-15917.19;5063571;27;51946;-54
2023/05/24 04:47:33;;;;;;;;;5.50;5.00;;;;;-147.17;100.00;-15917.19;5063570;27;52512;-55
2023/05/24 04:49:58;;;;;;;;;7.00;6.00;;;;;-147.17;100.00;-15917.19;5061324;27;51347;-55
2023/05/24 04:52:24;;;;;;;;;7.00;6.00;;;;;-147.17;100.00;-15917.19;5063612;27;51248;-55
2023/05/24 04:54:50;;;;;;;;;5.00;5.00;;;;;-147.17;100.00;-15917.19;5063622;27;51163;-55
2023/05/24 04:57:15;;;;;;;;;5.00;5.00;;;;;-147.17;100.00;-15917.19;5063139;27;51159;-54
2023/05/24 04:59:41;;;;;;;;;5.50;5.50;;;;;-147.17;100.00;-15917.19;5062186;27;51157;-54
2023/05/24 05:02:06;;;;;;;;;7.25;4.50;;;;;-147.17;100.00;-15917.19;5066090;27;51122;-55
2023/05/24 05:04:32;;;;;;;;;3.50;3.00;;;;;-147.17;100.00;-15917.19;5064417;28;53933;-55
2023/05/24 05:06:57;;;;;;;;;6.25;6.25;;;;;-147.17;100.00;-15917.19;5061605;27;51300;-54
2023/05/24 05:09:23;;;;;;;;;7.00;5.75;;;;;-147.17;100.00;-15917.19;5063962;27;51638;-55
2023/05/24 05:11:49;;;;;;;;;4.00;2.67;;;;;-147.17;100.00;-15917.19;5063975;27;51092;-54
2023/05/24 05:14:15;;;;;;;;;9.50;5.00;;;;;-147.17;100.00;-15917.19;5065481;28;51319;-56
2023/05/24 05:16:41;;;;;;;;;4.00;4.00;;;;;-147.17;100.00;-15917.19;5062164;27;52856;-55
2023/05/24 05:19:06;;;;;;;;;5.00;5.00;;;;;-147.17;100.00;-15917.19;5063665;27;51303;-55
2023/05/24 05:21:33;;;;;;;;;3.25;3.00;;;;;-147.17;100.00;-15917.19;5065785;28;51395;-56
2023/05/24 05:23:59;;;;;;;;;4.75;4.50;;;;;-147.17;100.00;-15917.19;5062523;27;51794;-55
2023/05/24 05:26:26;;;;;;;;;5.75;5.50;;;;;-147.17;100.00;-15917.19;5063504;27;51179;-55
2023/05/24 05:28:51;;;;;;;;;5.00;4.75;;;;;-147.17;100.00;-15917.19;5062559;27;51276;-56
2023/05/24 05:31:17;;;;;;;;;7.00;7.00;;;;;-147.17;100.00;-15917.19;5044637;28;51298;-56
2023/05/24 05:33:42;;;;;;;;;7.00;6.67;;;;;-147.17;100.00;-15917.19;5046684;27;51959;-56
2023/05/24 05:36:07;;;;;;;;;6.50;5.75;;;;;-147.17;100.00;-15917.19;5060758;27;54088;-55
2023/05/24 05:38:33;;;;;;;;;9.00;7.33;;;;;-147.17;100.00;-15668.00;5064328;28;51291;-55
2023/05/24 05:40:58;;;;;;;;;7.00;6.67;;;;;-147.17;100.00;-15172.50;5065063;27;51101;-55
2023/05/24 05:43:24;;;;;;;;;5.50;4.75;;;;;-147.17;100.00;-11950.22;5071508;28;51699;-55
2023/05/24 05:45:49;;;;;;;;;5.00;5.00;;;;;-147.17;100.00;-10214.00;5030083;28;51113;-56
2023/05/24 05:48:15;;;;;;;;;7.00;5.33;;;;;-147.17;100.00;-8725.22;5069433;27;50911;-54
2023/05/24 05:50:40;;;;;;;;;7.33;6.67;;;;;-147.17;100.00;-7732.34;5073452;28;51112;-55
2023/05/24 05:53:05;;;;;;;;;4.00;3.67;;;;;-147.17;100.00;-7484.09;5071718;27;51200;-54
2023/05/24 05:55:31;;;;;;;;;7.00;6.00;;;;;-147.17;100.00;-5000.69;5070074;28;51230;-55
2023/05/24 05:57:56;;;;;;;;;7.00;7.00;;;;;-147.17;100.00;-5000.69;5069789;28;51546;-55
2023/05/24 06:00:22;;;;;;;;;6.00;6.00;;;;;-147.17;100.00;-2764.22;5066639;27;51300;-54
2023/05/24 06:02:47;;;;;;;;;9.00;6.00;;;;;-147.17;100.00;-775.19;5070615;27;51808;-55
2023/05/24 06:05:13;;;;;;;;;6.67;6.33;;;;;-147.17;100.00;1214.91;5073148;28;51101;-54
2023/05/24 06:07:38;;;;;;;;;8.00;7.00;;;;;-147.17;100.00;2459.22;5068368;27;50854;-54
2023/05/24 06:10:04;;;;;;;;;6.33;6.33;;;;;-147.17;100.00;5198.13;5067264;27;51219;-55
2023/05/24 06:12:30;;;;;;;;;7.33;6.67;;;;;-147.17;100.00;7440.50;5072917;28;52815;-52
2023/05/24 06:14:56;;;;;;;;;8.67;7.33;;;;;-147.17;100.00;10681.81;5070155;27;51187;-55
2023/05/24 06:17:23;;;;;;;;;8.33;7.00;;;;;-147.17;100.00;14425.13;5071761;28;51247;-54
2023/05/24 06:19:48;;;;;;;;;10.00;8.00;;;;;-147.17;100.00;14175.44;5066899;27;51249;-52
2023/05/24 06:22:14;;;;;;;;;8.67;7.67;;;;;-147.17;100.00;20672.00;5072413;28;51995;-54
2023/05/24 06:24:39;;;;;;;;;5.67;5.00;;;;;-147.17;100.00;19921.84;5070823;27;51175;-56
2023/05/24 06:27:05;;;;;;;;;6.00;5.00;;;;;-147.17;100.00;22172.75;5057261;27;51210;-53
2023/05/24 06:29:30;;;;;;;;;5.67;5.67;;;;;-147.17;100.00;21422.31;5073073;28;51078;-55
2023/05/24 06:31:55;;;;;;;;;7.00;7.00;;;;;-147.17;100.00;21922.59;5062199;28;51072;-55
2023/05/24 06:34:21;;;;;;;;;8.00;6.67;;;;;-147.17;100.00;27028.75;5072146;28;51039;-55
2023/05/24 06:36:47;;;;;;;;;2.00;2.00;;;;;-147.17;100.00;30597.81;5071225;28;51036;-55
2023/05/24 06:39:13;;;;;;;;;9.33;8.33;;;;;-147.17;100.00;32758.84;5060202;28;51384;-56
2023/05/24 06:41:39;;;;;;;;;11.00;10.00;;;;;-147.17;100.00;34785.78;5066656;28;53302;-55
2023/05/24 06:44:05;;;;;;;;;5.00;5.00;;;;;-147.17;100.00;34081.94;5064438;28;51343;-55
2023/05/24 06:46:30;;;;;;;;;6.67;6.00;;;;;-147.17;100.00;33889.81;5064728;28;51004;-53
2023/05/24 06:48:56;;;;;;;;;9.00;7.00;;;;;-147.17;100.00;33546.75;5072369;28;51279;-53
2023/05/24 06:51:22;;;;;;;;;6.67;6.33;;;;;-147.17;100.00;36278.22;5072358;28;51750;-54
2023/05/24 06:53:47;;;;;;;;;5.00;5.00;;;;;-147.17;100.00;36782.38;5071614;27;51138;-56
2023/05/24 06:56:13;;;;;;;;;4.67;4.33;;;;;-147.17;100.00;37286.59;5071437;27;51073;-56
2023/05/24 06:58:39;;;;;;;;;6.00;6.00;;;;;-147.17;100.00;38053.81;5065375;28;51365;-56
2023/05/24 07:01:05;;;;;;;;;5.67;5.67;;;;;-147.17;100.00;39082.28;5067089;27;52177;-55
2023/05/24 07:03:31;;;;;;;;;5.33;5.33;;;;;-147.17;100.00;39785.06;5071784;27;50898;-56
2023/05/24 07:05:57;;;;;;;;;6.00;6.00;;;;;-147.17;100.00;39357.09;5070571;27;51595;-55
2023/05/24 07:08:23;;;;;;;;;7.00;6.00;;;;;-147.17;100.00;39323.72;5059381;28;51114;-53
2023/05/24 07:10:48;;;;;;;;;7.33;6.00;;;;;-147.17;100.00;40474.25;5071512;27;51869;-55
2023/05/24 07:13:14;;;;;;;;;7.67;6.67;;;;;-147.17;100.00;40328.94;5071628;28;51036;-55
2023/05/24 07:15:40;;;;;;;;;7.00;6.00;;;;;-147.17;100.00;40476.19;5071690;28;51278;-54
2023/05/24 07:18:06;;;;;;;;;6.33;6.00;;;;;-147.17;100.00;41143.88;5072356;28;50949;-54
2023/05/24 07:20:31;;;;;;;;;5.67;4.33;;;;;-147.17;100.00;41574.03;5059836;27;51040;-55
2023/05/24 07:22:57;;;;;;;;;8.67;7.00;;;;;-147.17;100.00;41475.81;5071468;28;51036;-52
2023/05/24 07:25:23;;;;;;;;;7.00;6.00;;;;;-147.17;100.00;41511.16;5071302;27;51293;-53
2023/05/24 07:27:49;;;;;;;;;9.00;7.67;;;;;-147.17;100.00;41295.13;5054744;27;51324;-55
2023/05/24 07:30:15;;;;;;;;;7.00;7.00;;;;;-147.17;100.00;42167.25;5034097;28;51029;-58
2023/05/24 07:32:41;;;;;;;;;5.67;5.00;;;;;-147.17;100.00;41636.88;5065263;27;52644;-58
2023/05/24 07:35:06;;;;;;;;;6.33;6.33;;;;;-147.17;100.00;41259.75;5066071;27;51331;-57
2023/05/24 07:37:32;;;;;;;;;5.00;4.00;;;;;-147.17;100.00;41660.44;5070989;27;51125;-58
2023/05/24 07:39:57;;;;;;;;;7.67;6.00;;;;;-147.17;100.00;40721.66;5051113;28;60785;-60
2023/05/24 07:42:23;;;;;;;;;5.00;5.00;;;;;-147.17;100.00;40456.56;5071292;27;57859;-59
2023/05/24 07:44:48;;;;;;;;;7.00;6.67;;;;;-147.17;100.00;40713.81;5053637;28;51373;-57
2023/05/24 07:47:13;;;;;;;;;7.67;7.67;;;;;-147.17;100.00;41735.09;5062822;27;51259;-59
2023/05/24 07:49:39;;;;;;;;;7.00;6.00;;;;;-147.17;100.00;41530.81;5057672;27;51217;-57
2023/05/24 07:52:04;;;;;;;;;6.00;6.00;;;;;-147.17;100.00;41515.09;5074701;28;51057;-59
2023/05/24 07:54:30;;;;;;;;;7.33;6.00;;;;;-147.17;100.00;41348.16;5066163;27;51111;-57
2023/05/24 07:56:56;;;;;;;;;8.00;6.00;;;;;-147.17;100.00;41644.72;5073339;28;51236;-57
2023/05/24 07:59:22;;;;;;;;;5.00;5.00;;;;;-147.17;100.00;41742.94;5071295;27;51806;-58
2023/05/24 08:01:48;;;;;;;;;6.00;6.00;;;;;-147.17;100.00;41998.31;5072725;27;51918;-57
2023/05/24 08:04:13;;;;;;;;;4.33;3.33;;;;;-147.17;100.00;42727.16;5073737;28;51048;-57
2023/05/24 08:06:39;;;;;;;;;7.67;5.67;;;;;-147.17;100.00;42984.56;5066222;28;51050;-57
2023/05/24 08:09:06;;;;;;;;;6.00;6.00;;;;;-147.17;100.00;43328.44;5068847;28;51987;-57
2023/05/24 08:11:31;;;;;;;;;6.67;4.33;;;;;-147.17;100.00;43287.16;5075352;28;51075;-57
2023/05/24 08:13:57;;;;;;;;;5.33;5.00;;;;;-147.17;100.00;43249.81;5067929;28;51880;-57
2023/05/24 08:16:23;;;;;;;;;7.67;7.00;;;;;-147.17;100.00;43796.13;5069486;27;51348;-57
2023/05/24 08:18:48;;;;;;;;;5.67;5.67;;;;;-147.17;100.00;43758.78;5065821;27;51151;-58
2023/05/24 08:21:13;;;;;;;;;8.00;5.00;;;;;-147.17;100.00;43870.81;5048648;28;51279;-57
2023/05/24 08:23:39;;;;;;;;;6.00;5.67;;;;;-147.17;100.00;43884.56;5075336;28;50898;-58
2023/05/24 08:26:04;;;;;;;;;7.00;6.00;;;;;-147.17;100.00;43817.75;5069388;27;51180;-58
2023/05/24 08:28:30;;;;;;;;;4.00;4.00;;;;;-147.17;100.00;43876.72;5066024;28;51144;-56
2023/05/24 08:30:57;;;;;;;;;6.67;5.33;;;;;-147.17;100.00;43644.81;5074679;28;51194;-58
2023/05/24 08:33:22;;;;;;;;;4.67;4.67;;;;;-147.17;100.00;43314.66;5068782;28;51014;-58
2023/05/24 08:35:49;;;;;;;;;5.00;4.00;;;;;-147.17;100.00;43644.81;5074325;27;51107;-57
2023/05/24 08:38:15;;;;;;;;;6.00;5.00;;;;;-147.17;100.00;43495.47;5074727;28;52658;-57
2023/05/24 08:40:41;;;;;;;;;6.00;6.00;;;;;-147.17;100.00;43243.94;5074750;28;51157;-57
2023/05/24 08:43:10;;;;;;;;;4.00;4.00;;;;;-147.17;100.00;43004.22;5075360;28;51056;-57
2023/05/24 08:45:37;;;;;;;;;4.33;3.67;;;;;-147.17;100.00;43336.28;5061380;28;50863;-58
2023/05/24 08:48:05;;;;;;;;;2.00;2.00;;;;;-147.17;100.00;44293.38;5074803;28;51028;-57
2023/05/24 08:50:32;;;;;;;;;3.00;3.00;;;;;-147.17;100.00;44603.94;5067329;27;51059;-57
2023/05/24 08:52:58;;;;;;;;;5.00;3.67;;;;;-147.17;100.00;44607.88;5071031;27;51124;-58
2023/05/24 08:55:24;;;;;;;;;2.67;2.67;;;;;-147.17;100.00;44234.41;5065513;27;51052;-57
2023/05/24 08:57:50;;;;;;;;;3.00;3.00;;;;;-147.17;100.00;43894.41;5056128;28;54115;-57
2023/05/24 09:00:16;;;;;;;;;4.67;4.00;;;;;-147.17;100.00;43526.91;5073660;27;51041;-57
2023/05/24 09:02:44;;;;;;;;;3.67;3.67;;;;;-147.17;100.00;43279.31;5061742;27;51241;-58
2023/05/24 09:05:11;;;;;;;;;5.67;4.00;;;;;-147.17;100.00;43035.66;5074121;28;51033;-57
2023/05/24 09:07:37;;;;;;;;;3.33;3.33;;;;;-147.17;100.00;43220.34;5074229;28;51874;-57
2023/05/24 09:10:07;;;;;;;;;4.00;4.00;;;;;-147.17;100.00;43090.66;5074199;28;50947;-58
2023/05/24 09:12:35;;;;;;;;;3.33;2.33;;;;;-147.17;100.00;42856.84;5073848;28;51151;-58
2023/05/24 09:15:01;;;;;;;;;2.00;2.00;;;;;-147.17;100.00;42638.75;5068039;27;51216;-58
2023/05/24 09:17:28;;;;;;;;;3.67;3.00;;;;;-147.17;100.00;42324.41;5072487;27;51837;-58
2023/05/24 09:19:53;;;;;;;;;2.67;2.67;;;;;-147.17;100.00;42483.53;5063320;27;50869;-58
2023/05/24 09:22:24;;;;;;;;;4.00;4.00;;;;;-147.17;100.00;42721.28;5072353;28;50889;-57
2023/05/24 09:24:51;;;;;;;;;4.00;4.00;;;;;-147.17;100.00;42560.16;5074067;28;52056;-59
2023/05/24 09:27:17;;;;;;;;;2.00;2.00;;;;;-147.17;100.00;42646.63;5073673;28;51807;-60
2023/05/24 09:29:45;;;;;;;;;3.00;3.00;;;;;-147.17;100.00;42754.66;5061069;27;51072;-59
2023/05/24 09:32:12;;;;;;;;;4.00;3.67;;;;;-147.17;100.00;42237.97;5073918;28;50993;-58
2023/05/24 09:34:38;;;;;;;;;3.00;3.00;;;;;-147.17;100.00;41988.47;5073985;28;51168;-59
2023/05/24 09:37:05;;;;;;;;;4.00;4.00;;;;;-147.17;100.00;41713.47;5073518;28;52445;-59
2023/05/24 09:39:31;;;;;;;;;3.00;3.00;;;;;-147.17;100.00;41703.66;5060488;27;51193;-58
2023/05/24 09:41:57;;;;;;;;;4.00;3.00;;;;;-147.17;100.00;41776.34;5046585;27;51552;-59
2023/05/24 09:44:26;;;;;;;;;2.33;2.33;;;;;-147.17;100.00;41687.94;5072576;28;51386;-58
2023/05/24 09:46:52;;;;;;;;;3.00;3.00;;;;;-147.17;100.00;41729.19;5070604;27;51150;-58
2023/05/24 09:49:20;;;;;;;;;2.33;1.33;;;;;-147.17;100.00;41872.59;5060468;28;51172;-57
2023/05/24 09:51:45;;;;;;;;;4.33;4.00;;;;;-147.17;100.00;42112.25;5069059;27;51258;-57
2023/05/24 09:54:11;;;;;;;;;4.00;3.67;;;;;-147.17;100.00;42112.25;5067395;27;51276;-57
2023/05/24 09:56:38;;;;;;;;;3.00;2.33;;;;;-147.17;100.00;42002.25;5060977;28;51087;-57
2023/05/24 09:59:07;;;;;;;;;3.00;2.00;;;;;-147.17;100.00;41929.56;5069097;27;51129;-57
2023/05/24 10:01:34;;;;;;;;;3.00;3.00;;;;;-147.17;100.00;41754.72;5069228;27;51116;-58
2023/05/24 10:04:01;;;;;;;;;1.00;1.00;;;;;-147.17;100.00;41648.66;5073163;28;51395;-57
2023/05/24 10:06:28;;;;;;;;;3.67;3.00;;;;;-147.17;100.00;42385.31;5068636;27;52004;-58
2023/05/24 10:08:55;;;;;;;;;1.67;1.00;;;;;-147.17;100.00;42344.06;5071452;27;51238;-58
2023/05/24 10:11:21;;;;;;;;;5.00;5.00;;;;;-147.17;100.00;42536.59;5050038;28;51059;-58
2023/05/24 10:13:47;;;;;;;;;3.00;2.00;;;;;-147.17;100.00;42850.94;5069085;28;51334;-59
2023/05/24 10:16:13;;;;;;;;;3.00;2.00;;;;;-147.17;100.00;43705.72;5052771;27;53534;-58
2023/05/24 10:18:38;;;;;;;;;2.00;2.00;;;;;-147.17;100.00;45181.91;5075402;27;51137;-58
2023/05/24 10:21:08;;;;;;;;;2.00;2.00;;;;;-147.17;100.00;46161.09;5065915;27;51096;-57
2023/05/24 10:23:36;;;;;;;;;3.00;3.00;;;;;-147.17;100.00;46876.94;5075131;27;51120;-57
2023/05/24 10:26:05;;;;;;;;;2.00;2.00;;;;;-147.17;100.00;47227.06;5069714;27;52068;-58
2023/05/24 10:28:33;;;;;;;;;4.00;3.00;;;;;-147.17;100.00;47290.00;5067339;27;51170;-59
2023/05/24 10:31:06;;;;;;;;;3.33;3.00;;;;;-147.17;100.00;47024.47;5072111;28;51267;-58
2023/05/24 10:33:36;;;;;;;;;2.00;2.00;;;;;-147.17;100.00;46705.84;5070597;27;51484;-59
2023/05/24 10:36:05;;;;;;;;;2.00;2.00;;;;;-147.17;100.00;47093.31;5064415;27;51163;-58
2023/05/24 10:38:31;;;;;;;;;5.00;4.00;;;;;-147.17;100.00;47518.19;5044499;28;51285;-58
2023/05/24 10:40:56;;;;;;;;;2.33;2.33;;;;;-147.17;100.00;48122.16;5068453;27;51391;-57
2023/05/24 10:43:22;;;;;;;;;4.00;3.33;;;;;-147.17;100.00;48716.34;5079118;27;51014;-57
2023/05/24 10:45:49;;;;;;;;;2.00;2.00;;;;;-147.17;100.00;48911.16;5077137;27;52132;-58
2023/05/24 10:48:15;;;;;;;;;2.33;2.00;;;;;-147.17;100.00;48989.88;5064871;28;51118;-57
2023/05/24 10:50:41;;;;;;;;;4.33;2.67;;;;;-147.17;100.00;49064.66;5072736;28;50946;-57
2023/05/24 10:53:15;;;;;;;;;1.00;0.00;;;;;-147.17;100.00;49139.44;5072472;28;51279;-57
2023/05/24 10:56:02;;;;;;;;;3.00;3.00;;;;;-147.17;100.00;49218.16;5072301;28;51829;-57
2023/05/24 10:59:05;;;;;;;;;2.67;2.67;;;;;-147.17;100.00;49178.81;5072022;28;51137;-58
2023/05/24 11:01:32;;;;;;;;;5.00;4.00;;;;;-147.17;100.00;49214.22;4970235;28;51145;-57
2023/05/24 11:04:15;;;;;;;;;5.00;5.00;;;;;-147.17;100.00;49178.81;5034908;28;51331;-58
2023/05/24 11:06:49;;;;;;;;;3.67;2.67;;;;;-147.17;100.00;49237.84;5071483;28;51108;-57